Time;durP1;ratioP1;P1;durP2;ratioP2;P2;SDS_P1;SDS_P2;PMS_P1;PMS_P2;Temp;Humidity;BMP_temperature;BMP_pressure;BME280_temperature;BME280_humidity;BME280_pressure;Samples;Min_cycle;Max_cycle;Signal;HPM_P1;HPM_P2
2022/02/07 00:02:25;;;;;;;29.52;14.57;;;;;;;3.92;74.18;99610.94;5050383;28;20575;-38
2022/02/07 00:04:51;;;;;;;30.10;14.60;;;;;;;3.86;73.00;99595.75;5050427;28;20029;-38
2022/02/07 00:07:18;;;;;;;32.88;16.38;;;;;;;3.55;73.69;99592.94;5050395;28;20037;-37
2022/02/07 00:09:44;;;;;;;34.75;19.05;;;;;;;3.72;74.33;99591.97;5048809;28;20397;-38
2022/02/07 00:12:10;;;;;;;42.55;20.70;;;;;;;3.90;73.21;99583.94;5050199;28;20480;-37
2022/02/07 00:14:35;;;;;;;40.25;19.95;;;;;;;3.55;74.15;99586.88;5050242;28;20091;-37
2022/02/07 00:17:01;;;;;;;35.17;18.63;;;;;;;3.63;74.55;99586.88;5050373;28;20025;-36
2022/02/07 00:19:28;;;;;;;38.80;18.98;;;;;;;3.63;74.61;99573.72;5048399;28;20489;-36
2022/02/07 00:21:54;;;;;;;37.33;17.65;;;;;;;3.81;74.08;99571.75;5049854;28;20143;-37
2022/02/07 00:24:19;;;;;;;50.10;22.23;;;;;;;3.82;73.86;99573.38;5049603;28;20067;-37
2022/02/07 00:26:45;;;;;;;42.13;18.95;;;;;;;3.61;73.79;99573.88;5052945;28;20017;-37
2022/02/07 00:29:11;;;;;;;33.53;17.15;;;;;;;3.54;74.20;99570.22;5053730;28;20098;-37
2022/02/07 00:31:37;;;;;;;33.42;17.23;;;;;;;3.60;74.03;99555.59;5053692;28;20043;-37
2022/02/07 00:34:02;;;;;;;35.97;17.17;;;;;;;3.72;74.27;99556.94;5053728;28;20500;-38
2022/02/07 00:36:29;;;;;;;34.80;17.02;;;;;;;3.56;74.11;99549.03;5053709;28;20480;-37
2022/02/07 00:39:00;;;;;;;41.20;16.58;;;;;;;3.53;74.81;99543.09;5053805;28;20099;-37
2022/02/07 00:41:36;;;;;;;33.60;17.67;;;;;;;3.67;75.37;99538.19;5054111;28;20049;-37
2022/02/07 00:44:11;;;;;;;34.58;18.38;;;;;;;3.55;74.41;99542.94;5053574;28;20060;-37
2022/02/07 00:46:46;;;;;;;32.17;17.30;;;;;;;3.48;74.17;99534.91;5053697;28;20025;-36
2022/02/07 00:49:11;;;;;;;35.70;17.63;;;;;;;3.73;74.55;99521.72;5053605;28;20021;-37
2022/02/07 00:51:36;;;;;;;36.58;17.52;;;;;;;3.71;74.05;99527.19;5053381;28;20032;-36
2022/02/07 00:54:02;;;;;;;33.78;16.30;;;;;;;3.74;72.62;99523.38;5053282;28;20029;-36
2022/02/07 00:56:27;;;;;;;31.77;16.55;;;;;;;3.55;74.19;99526.34;5053574;28;20079;-36
2022/02/07 00:58:53;;;;;;;32.40;16.17;;;;;;;3.49;74.93;99514.66;5053430;28;20158;-37
2022/02/07 01:01:18;;;;;;;37.90;17.23;;;;;;;3.50;73.30;99503.13;5053226;28;20021;-37
2022/02/07 01:03:44;;;;;;;35.22;16.88;;;;;;;3.48;73.17;99495.44;5053161;28;20017;-37
2022/02/07 01:06:09;;;;;;;35.92;16.42;;;;;;;3.40;74.44;99494.59;5053237;28;20025;-37
2022/02/07 01:08:43;;;;;;;43.08;16.50;;;;;;;3.44;75.56;99488.00;5053071;28;20025;-37
2022/02/07 01:11:33;;;;;;;36.22;16.90;;;;;;;2.84;73.83;99416.28;5052894;28;20044;-38
2022/02/07 01:14:12;;;;;;;36.25;17.48;;;;;;;3.09;75.33;99474.97;5051458;28;20033;-37
2022/02/07 01:56:37;;;;;;;35.22;16.70;;;;;;;2.87;76.04;99413.31;5051763;28;20068;-38
2022/02/07 01:59:02;;;;;;;32.35;16.55;;;;;;;2.99;75.39;99407.75;5052219;28;20124;-37
2022/02/07 02:01:29;;;;;;;36.58;17.45;;;;;;;3.06;73.86;99399.03;5051794;28;20122;-38
2022/02/07 02:03:54;;;;;;;36.65;17.52;;;;;;;2.93;75.90;99414.47;5052322;28;20079;-37
2022/02/07 02:06:21;;;;;;;34.42;16.90;;;;;;;2.83;75.53;99411.19;5052569;28;20053;-38
2022/02/07 02:08:46;;;;;;;32.83;15.85;;;;;;;2.71;75.74;99406.22;5052077;28;20103;-37
2022/02/07 02:11:12;;;;;;;32.00;15.85;;;;;;;2.74;76.73;99402.44;5050947;28;20060;-36
2022/02/07 02:14:18;;;;;;;36.83;16.27;;;;;;;2.78;75.31;99389.81;5051966;28;20090;-36
2022/02/07 02:16:34;;;;;;;33.17;17.30;;;;;;;2.82;74.94;99391.13;5052092;28;20550;-36
2022/02/07 02:35:53;;;;;;;25.15;13.05;;;;;;;2.38;76.85;99376.44;5052097;28;20032;-37
2022/02/07 02:38:25;;;;;;;24.10;12.07;;;;;;;1.97;76.41;99367.56;5052047;28;20021;-38
2022/02/07 02:46:23;;;;;;;20.75;10.35;;;;;;;2.08;73.80;99368.13;5051693;28;20118;-36
2022/02/07 02:48:48;;;;;;;;;;;;;;;1.90;75.32;99352.44;5051490;28;20095;-37
2022/02/07 02:51:15;;;;;;;18.20;9.85;;;;;;;1.96;76.16;99345.72;5051107;28;19917;-37
2022/02/07 02:53:41;;;;;;;20.75;10.27;;;;;;;2.01;75.91;99351.34;5051492;28;20036;-37
2022/02/07 02:56:06;;;;;;;18.20;10.00;;;;;;;2.25;75.14;99344.56;5051715;28;20028;-37
2022/02/07 02:58:32;;;;;;;19.50;10.55;;;;;;;2.10;74.25;99339.09;5051216;28;20029;-37
2022/02/07 03:00:57;;;;;;;20.65;10.73;;;;;;;2.19;74.76;99340.75;5051371;28;20094;-37
2022/02/07 03:03:23;;;;;;;22.13;10.18;;;;;;;2.12;74.67;99340.56;5051782;28;20021;-38
2022/02/07 03:05:49;;;;;;;19.40;10.02;;;;;;;2.03;75.34;99338.06;5051356;28;20032;-37
2022/02/07 03:08:15;;;;;;;18.98;10.75;;;;;;;2.08;75.22;99339.25;5051247;28;20089;-38
2022/02/07 03:13:16;;;;;;;19.48;9.82;;;;;;;2.27;73.96;99327.66;5051634;28;20040;-36
2022/02/07 03:18:26;;;;;;;18.58;9.07;;;;;;;2.28;74.61;99333.72;5051574;28;20515;-37
2022/02/07 03:20:52;;;;;;;21.27;10.35;;;;;;;2.35;73.13;99330.28;5051404;28;20045;-37
2022/02/07 03:23:18;;;;;;;17.50;9.45;;;;;;;2.50;72.85;99325.25;5051322;28;20013;-37
2022/02/07 03:25:43;;;;;;;17.67;9.50;;;;;;;2.43;72.50;99316.34;5051277;28;20028;-37
2022/02/07 03:28:09;;;;;;;21.60;9.75;;;;;;;2.30;72.23;99308.13;5051364;28;20481;-37
2022/02/07 03:30:34;;;;;;;17.77;8.98;;;;;;;2.23;73.18;99304.47;5051134;28;20036;-37
2022/02/07 03:33:00;;;;;;;19.00;9.32;;;;;;;2.16;72.53;99306.94;5050984;28;20021;-37
2022/02/07 03:35:25;;;;;;;17.13;9.55;;;;;;;2.41;73.79;99299.13;5051235;28;20107;-37
2022/02/07 03:37:51;;;;;;;19.30;9.82;;;;;;;2.62;71.15;99288.97;5051087;28;20016;-37
2022/02/07 03:40:16;;;;;;;20.50;10.18;;;;;;;2.81;71.01;99287.00;5050826;28;20021;-37
2022/02/07 03:42:42;;;;;;;19.00;9.80;;;;;;;2.65;70.09;99285.19;5051100;28;20082;-37
2022/02/07 03:45:08;;;;;;;17.30;9.27;;;;;;;2.67;69.32;99283.22;5050932;28;20025;-37
2022/02/07 03:47:33;;;;;;;17.30;8.98;;;;;;;2.68;70.08;99277.78;5051203;28;20024;-37
2022/02/07 03:49:59;;;;;;;17.08;9.18;;;;;;;2.76;70.73;99282.25;5051035;28;20078;-37
2022/02/07 03:52:26;;;;;;;21.17;9.38;;;;;;;2.68;70.33;99287.47;5051019;28;20484;-37
2022/02/07 03:54:51;;;;;;;17.45;9.48;;;;;;;2.56;70.44;99276.47;5050689;28;20143;-37
2022/02/07 03:57:17;;;;;;;19.88;10.10;;;;;;;2.37;68.45;99277.59;5050722;28;20178;-38
2022/02/07 03:59:42;;;;;;;17.10;9.32;;;;;;;2.27;70.05;99266.44;5050836;28;20473;-38
2022/02/07 04:02:08;;;;;;;18.30;9.60;;;;;;;2.34;71.09;99264.78;5053999;28;20016;-38
2022/02/07 04:04:34;;;;;;;19.42;9.23;;;;;;;2.57;68.48;99254.50;5054163;28;20048;-38
2022/02/07 04:06:59;;;;;;;16.70;9.55;;;;;;;2.40;70.87;99258.06;5052953;28;20021;-38
2022/02/07 04:09:31;;;;;;;17.70;8.75;;;;;;;2.23;71.39;99250.19;5039115;28;20030;-37
2022/02/07 04:12:04;;;;;;;18.65;9.43;;;;;;;2.18;70.72;99257.72;5034605;28;20474;-38
2022/02/07 04:14:29;;;;;;;17.75;8.98;;;;;;;2.08;71.14;99260.47;5034788;28;20030;-37
2022/02/07 04:16:55;;;;;;;21.30;9.80;;;;;;;1.79;72.20;99255.66;5034508;28;20033;-37
2022/02/07 04:19:23;;;;;;;80.35;34.40;;;;;;;1.84;73.52;99255.97;5034529;28;20025;-38
2022/02/07 04:21:51;;;;;;;84.43;35.88;;;;;;;1.70;75.03;99262.66;5034200;28;20049;-36
2022/02/07 04:24:17;;;;;;;134.25;48.17;;;;;;;1.72;73.88;99254.63;5034396;28;20022;-37
2022/02/07 04:26:43;;;;;;;51.22;22.48;;;;;;;1.76;74.11;99263.84;5034145;28;20143;-36
2022/02/07 04:29:08;;;;;;;23.92;11.77;;;;;;;2.05;73.21;99267.84;5034117;28;20028;-36
2022/02/07 04:31:34;;;;;;;20.52;12.05;;;;;;;2.08;72.89;99264.94;5034635;28;20410;-38
2022/02/07 04:33:59;;;;;;;23.08;13.10;;;;;;;1.95;71.61;99260.13;5034175;28;20044;-37
2022/02/07 04:36:24;;;;;;;21.08;10.82;;;;;;;1.90;72.51;99265.84;5034267;28;20444;-37
2022/02/07 04:38:50;;;;;;;25.00;11.25;;;;;;;2.00;71.89;99251.75;5040140;28;20017;-37
2022/02/07 04:41:15;;;;;;;23.58;11.00;;;;;;;1.95;71.06;99263.56;5043203;28;20025;-37
2022/02/07 04:43:49;;;;;;;24.45;11.18;;;;;;;1.82;71.38;99271.06;5053443;28;20044;-37
2022/02/07 04:46:36;;;;;;;23.17;11.27;;;;;;;1.70;71.58;99249.53;5052512;28;20029;-37
2022/02/07 04:59:35;;;;;;;29.00;13.80;;;;;;;1.35;73.23;99282.81;5053128;28;20033;-37
2022/02/07 05:02:09;;;;;;;26.25;12.85;;;;;;;1.71;73.80;99287.09;5053297;28;20047;-37
2022/02/07 05:04:40;;;;;;;28.90;14.10;;;;;;;1.40;73.54;99274.47;5051389;28;20071;-37
2022/02/07 05:15:18;;;;;;;30.60;15.05;;;;;;;0.94;72.49;99264.22;5052764;28;20094;-37
2022/02/07 05:17:43;;;;;;;29.48;15.00;;;;;;;0.86;74.06;99269.41;5052705;28;20040;-37
2022/02/07 05:20:09;;;;;;;32.17;15.77;;;;;;;0.85;74.45;99269.53;5052364;28;20473;-37
2022/02/07 05:22:34;;;;;;;33.97;16.67;;;;;;;1.17;73.76;99280.25;5052740;28;20398;-37
2022/02/07 05:25:00;;;;;;;36.97;15.77;;;;;;;1.02;73.88;99270.50;5052340;28;20021;-37
2022/02/07 05:27:25;;;;;;;32.10;15.15;;;;;;;1.05;74.35;99262.31;5047270;28;20053;-37
2022/02/07 05:29:51;;;;;;;35.45;14.98;;;;;;;1.12;73.86;99273.81;5052243;28;20021;-37
2022/02/07 05:32:17;;;;;;;33.38;15.68;;;;;;;1.05;76.16;99273.63;5051732;28;20102;-37
2022/02/07 05:34:43;;;;;;;34.08;16.73;;;;;;;1.33;77.63;99266.44;5051014;28;20044;-38
2022/02/07 05:37:12;;;;;;;31.38;16.35;;;;;;;1.46;74.27;99265.16;5050988;28;20032;-37
2022/02/07 05:39:38;;;;;;;34.77;18.40;;;;;;;1.41;74.46;99264.81;5042980;28;20481;-37
2022/02/07 05:42:06;;;;;;;39.70;17.25;;;;;;;1.54;74.28;99255.56;5031827;28;20454;-37
2022/02/07 05:44:32;;;;;;;33.20;17.75;;;;;;;1.75;73.59;99244.66;5031769;28;20480;-37
2022/02/07 05:46:58;;;;;;;79.82;36.50;;;;;;;1.80;72.75;99249.41;5032193;28;20056;-37
2022/02/07 05:49:24;;;;;;;40.28;19.10;;;;;;;2.07;71.19;99252.75;5031318;28;20461;-38
2022/02/07 05:51:50;;;;;;;27.27;13.30;;;;;;;2.27;71.47;99251.50;5031408;28;20029;-37
2022/02/07 05:54:16;;;;;;;26.40;13.88;;;;;;;2.68;69.22;99254.13;5030756;28;20029;-37
2022/02/07 05:56:41;;;;;;;28.50;13.00;;;;;;;2.85;68.21;99264.66;5032258;28;20104;-37
2022/02/07 05:59:07;;;;;;;26.98;13.90;;;;;;;2.69;69.05;99271.56;5030425;28;20470;-38
2022/02/07 06:01:32;;;;;;;31.80;15.15;;;;;;;2.79;68.56;99258.25;5031898;28;20052;-38
2022/02/07 06:03:58;;;;;;;37.15;16.92;;;;;;;2.80;67.93;99267.78;5034215;28;20087;-38
2022/02/07 06:06:23;;;;;;;44.55;20.90;;;;;;;3.00;67.35;99273.50;5050903;28;20366;-38
2022/02/07 06:08:48;;;;;;;61.17;26.05;;;;;;;3.11;67.52;99270.53;5050723;28;20028;-38
2022/02/07 06:11:14;;;;;;;41.80;17.88;;;;;;;3.33;66.12;99262.94;5050256;28;20053;-38
2022/02/07 06:13:40;;;;;;;43.30;21.48;;;;;;;3.62;64.71;99258.94;5050724;28;20150;-38
2022/02/07 06:16:06;;;;;;;48.60;23.88;;;;;;;4.05;63.79;99265.44;5050676;28;20178;-36
2022/02/07 06:18:32;;;;;;;36.90;17.77;;;;;;;4.35;62.05;99256.91;5050756;28;20027;-38
2022/02/07 06:21:02;;;;;;;37.47;17.38;;;;;;;4.30;62.62;99241.59;5051670;28;20377;-36
2022/02/07 06:23:28;;;;;;;40.65;17.35;;;;;;;4.38;62.18;99240.72;5051346;28;20025;-39
2022/02/07 06:25:57;;;;;;;33.40;16.17;;;;;;;4.46;61.86;99236.22;5051907;28;20032;-37
2022/02/07 06:28:22;;;;;;;34.15;15.90;;;;;;;4.37;63.78;99247.00;5051220;28;20388;-37
2022/02/07 06:30:48;;;;;;;33.97;15.93;;;;;;;4.93;61.76;99239.63;5051494;28;20032;-38
2022/02/07 06:33:13;;;;;;;46.50;23.42;;;;;;;5.03;60.63;99234.91;5051429;28;20163;-50
2022/02/07 06:35:39;;;;;;;69.65;35.35;;;;;;;5.12;61.20;99242.75;5051515;28;20404;-48
2022/02/07 06:38:04;;;;;;;37.58;19.27;;;;;;;5.31;59.89;99236.13;5051327;28;20052;-48
2022/02/07 06:40:30;;;;;;;29.65;15.15;;;;;;;5.24;59.54;99236.84;5051124;28;20123;-51
2022/02/07 06:42:55;;;;;;;28.70;14.00;;;;;;;5.35;59.40;99232.94;5051096;28;20027;-50
2022/02/07 06:45:21;;;;;;;27.02;13.10;;;;;;;5.56;57.90;99231.38;5051334;28;20039;-51
2022/02/07 06:47:46;;;;;;;24.38;13.75;;;;;;;5.33;58.83;99250.78;5050768;28;20504;-51
2022/02/07 06:50:11;;;;;;;29.25;14.10;;;;;;;5.51;58.81;99242.50;5051276;28;20452;-38
2022/02/07 06:52:37;;;;;;;27.08;14.32;;;;;;;5.70;57.53;99245.59;5051032;28;20033;-51
2022/02/07 06:55:03;;;;;;;30.95;14.93;;;;;;;5.79;57.34;99237.38;5051021;28;20056;-53
2022/02/07 06:57:28;;;;;;;29.17;15.52;;;;;;;5.79;57.37;99234.72;5051202;28;20025;-49
2022/02/07 06:59:54;;;;;;;30.33;14.68;;;;;;;5.67;58.13;99244.94;5050887;28;20032;-50
2022/02/07 07:02:25;;;;;;;30.55;15.38;;;;;;;6.03;57.33;99235.44;5051032;28;20460;-51
2022/02/07 07:04:51;;;;;;;28.27;16.20;;;;;;;6.40;56.18;99238.88;5041127;28;20061;-53
2022/02/07 07:07:18;;;;;;;27.38;15.48;;;;;;;6.64;56.20;99237.66;5030759;28;20405;-52
2022/02/07 07:09:45;;;;;;;28.80;14.00;;;;;;;6.79;55.21;99224.34;5048119;28;20065;-50
2022/02/07 07:12:11;;;;;;;27.35;11.68;;;;;;;6.85;54.86;99229.72;5050692;28;20060;-51
2022/02/07 07:14:50;;;;;;;21.13;11.32;;;;;;;6.82;54.86;99237.22;5050502;28;20069;-51
2022/02/07 07:17:15;;;;;;;18.15;11.48;;;;;;;7.04;54.45;99246.75;5050609;28;20029;-51
2022/02/07 07:19:41;;;;;;;20.20;12.30;;;;;;;6.97;54.12;99253.81;5050784;28;20040;-52
2022/02/07 07:22:06;;;;;;;24.08;12.80;;;;;;;6.89;54.72;99245.19;5051188;28;20056;-52
2022/02/07 07:24:33;;;;;;;20.25;12.15;;;;;;;7.23;53.47;99233.81;5050398;28;20448;-49
2022/02/07 07:26:59;;;;;;;28.05;13.13;;;;;;;7.17;53.94;99231.97;5048896;28;20094;-49
2022/02/07 07:29:30;;;;;;;23.98;12.82;;;;;;;7.31;53.72;99217.81;5049805;28;20039;-49
2022/02/07 07:44:38;;;;;;;18.17;11.68;;;;;;;9.86;46.14;99201.84;5027367;28;20393;-49
2022/02/07 07:47:09;;;;;;;21.42;12.63;;;;;;;9.55;47.11;99198.06;5028288;28;20044;-49
2022/02/07 07:49:44;;;;;;;20.52;12.23;;;;;;;9.49;46.98;99192.78;5027818;28;20017;-50
2022/02/07 07:52:14;;;;;;;18.45;11.82;;;;;;;9.48;47.73;99202.63;5027769;28;20487;-48
2022/02/07 08:03:09;;;;;;;20.17;10.95;;;;;;;9.83;45.82;99173.03;5027448;28;20020;-48
2022/02/07 08:06:05;;;;;;;20.73;11.85;;;;;;;9.79;46.00;99169.16;5026230;28;20026;-52
2022/02/07 08:08:38;;;;;;;21.67;11.50;;;;;;;9.84;45.39;99171.19;5025402;28;20092;-51
2022/02/07 08:11:09;;;;;;;18.48;11.70;;;;;;;9.63;45.99;99167.00;5026982;28;20021;-52
2022/02/07 08:31:09;;;;;;;18.10;11.27;;;;;;;10.95;42.75;99122.69;5128438;27;20397;-37
2022/02/07 08:33:35;;;;;;;20.67;10.93;;;;;;;10.54;43.76;99123.28;5128658;27;20502;-38
2022/02/07 08:36:05;;;;;;;22.00;11.05;;;;;;;10.83;43.65;99108.44;5128415;27;20072;-38
2022/02/07 08:38:30;;;;;;;18.20;10.52;;;;;;;10.68;43.84;99103.50;5128569;27;20510;-37
2022/02/07 08:40:56;;;;;;;22.33;11.07;;;;;;;10.83;43.61;99097.00;5128434;27;20027;-38
2022/02/07 08:43:21;;;;;;;22.15;11.20;;;;;;;11.25;42.33;99107.78;5128172;27;20092;-38
2022/02/07 08:45:47;;;;;;;21.58;11.00;;;;;;;10.93;43.42;99102.66;5128159;27;20031;-38
2022/02/07 08:48:12;;;;;;;18.25;11.02;;;;;;;11.14;42.47;99096.06;5128635;27;20031;-38
2022/02/07 08:50:38;;;;;;;20.13;11.30;;;;;;;11.41;42.38;99106.41;5128731;27;20019;-37
2022/02/07 08:53:05;;;;;;;22.30;11.27;;;;;;;11.16;42.47;99099.31;5128997;27;20137;-38
2022/02/07 08:58:04;;;;;;;30.02;13.68;;;;;;;11.22;42.12;99093.09;5128587;27;20035;-37
2022/02/07 09:00:42;;;;;;;19.88;11.55;;;;;;;11.14;43.21;99090.72;5128885;27;20034;-38
2022/02/07 09:03:25;;;;;;;20.83;12.10;;;;;;;10.96;43.45;99078.22;5143036;27;20414;-38
2022/02/07 09:06:06;;;;;;;21.15;10.98;;;;;;;11.22;42.79;99073.63;5128689;27;20020;-38
2022/02/07 09:11:15;;;;;;;26.80;11.88;;;;;;;10.57;45.49;99043.03;5142901;27;20123;-38
2022/02/07 09:13:42;;;;;;;32.72;15.00;;;;;;;10.90;44.12;99039.19;5128614;27;20030;-37
2022/02/07 09:18:34;;;;;;;34.97;16.70;;;;;;;12.20;43.56;99012.97;5128012;27;20095;-38
2022/02/07 09:21:00;;;;;;;26.55;13.95;;;;;;;12.73;40.48;99014.66;5127683;27;20024;-38
2022/02/07 09:23:27;;;;;;;24.77;12.98;;;;;;;12.19;40.92;99017.50;5127468;27;20026;-37
2022/02/07 09:25:53;;;;;;;24.65;13.70;;;;;;;11.69;42.96;99008.03;5124252;27;20022;-38
2022/02/07 09:28:19;;;;;;;27.30;14.63;;;;;;;12.19;41.89;99006.03;5113355;28;20031;-37
2022/02/07 09:30:45;;;;;;;29.45;15.02;;;;;;;12.46;42.32;99012.50;5112955;28;20100;-38
2022/02/07 09:33:11;;;;;;;24.15;13.93;;;;;;;11.79;42.97;99019.97;5113233;28;20016;-38
2022/02/07 09:35:36;;;;;;;26.23;13.43;;;;;;;11.76;42.46;99025.75;5112778;28;20023;-38
2022/02/07 09:38:02;;;;;;;23.75;12.38;;;;;;;11.77;43.19;99016.72;5112698;28;20030;-39
2022/02/07 09:40:27;;;;;;;21.38;11.73;;;;;;;11.78;42.87;99003.16;5113149;28;20088;-38
2022/02/07 09:42:58;;;;;;;28.58;13.95;;;;;;;11.86;43.77;99004.66;5111835;28;20102;-38
2022/02/07 09:45:33;;;;;;;25.92;14.15;;;;;;;11.97;42.95;99003.91;5113139;28;20020;-40
2022/02/07 09:47:59;;;;;;;26.35;14.70;;;;;;;11.80;44.03;98984.28;5110780;28;20027;-38
2022/02/07 09:50:25;;;;;;;30.17;15.35;;;;;;;11.58;44.55;98978.69;5110617;28;20023;-38
2022/02/07 09:52:50;;;;;;;29.98;13.52;;;;;;;11.40;44.45;98975.03;5111521;28;20027;-38
2022/02/07 09:55:16;;;;;;;26.38;14.48;;;;;;;11.31;45.67;98955.91;5113301;28;20030;-38
2022/02/07 09:57:41;;;;;;;26.40;15.32;;;;;;;11.37;45.83;98945.38;5111659;28;20058;-38
2022/02/07 10:00:08;;;;;;;39.42;17.52;;;;;;;11.61;46.20;98927.56;5111085;28;20019;-38
2022/02/07 10:02:46;;;;;;;36.50;18.13;;;;;;;11.43;45.95;98928.50;5112872;28;20023;-38
2022/02/07 10:05:20;;;;;;;35.25;19.70;;;;;;;11.66;45.54;98925.03;5113027;28;20023;-39
2022/02/07 10:08:15;;;;;;;32.92;17.33;;;;;;;11.43;46.65;98915.16;5111468;28;20107;-38
2022/02/07 10:10:56;;;;;;;29.80;15.60;;;;;;;11.22;46.53;98901.34;5112686;28;20049;-38
2022/02/07 10:13:51;;;;;;;24.90;14.20;;;;;;;10.99;47.34;98901.28;5113146;28;20035;-38
2022/02/07 10:39:15;;;;;;;25.75;14.07;;;;;;;10.43;52.41;98882.72;5111618;28;20402;-38
2022/02/07 10:46:12;;;;;;;28.25;15.73;;;;;;;10.26;53.00;98863.06;5112239;28;20081;-38
2022/02/07 10:48:38;;;;;;;31.83;17.08;;;;;;;10.33;52.64;98862.00;5110388;28;20049;-37
2022/02/07 10:51:09;;;;;;;27.83;15.50;;;;;;;10.30;52.61;98856.28;5111242;28;20051;-38
2022/02/07 10:53:38;;;;;;;28.70;16.42;;;;;;;10.62;52.05;98858.78;5111991;28;20024;-37
2022/02/07 10:56:04;;;;;;;34.30;17.23;;;;;;;10.36;52.49;98861.56;5112491;28;20094;-38
2022/02/07 10:58:30;;;;;;;26.75;16.13;;;;;;;10.22;52.47;98848.59;5112089;28;20042;-38
2022/02/07 11:01:03;;;;;;;30.40;16.33;;;;;;;10.47;52.00;98838.72;5111980;28;20398;-38
2022/02/07 11:03:36;;;;;;;28.35;16.67;;;;;;;10.31;52.28;98826.84;5112017;28;20047;-38
2022/02/07 11:06:03;;;;;;;28.15;15.55;;;;;;;10.05;52.95;98825.28;5110480;28;20039;-38
2022/02/07 11:09:21;;;;;;;25.00;15.57;;;;;;;10.43;52.73;98821.56;5111911;28;20035;-39
2022/02/07 11:17:02;;;;;;;22.52;14.27;;;;;;;10.41;53.51;98826.28;5076986;28;20380;-38
2022/02/07 11:27:31;;;;;;;29.35;15.68;;;;;;;10.76;52.91;98791.84;5091086;28;20028;-37
2022/02/07 11:29:56;;;;;;;25.55;13.25;;;;;;;10.76;52.68;98791.03;5090845;28;20426;-38
2022/02/07 11:32:45;;;;;;;23.13;13.55;;;;;;;10.71;53.28;98782.91;5090995;28;20119;-36
2022/02/07 11:35:42;;;;;;;25.35;14.60;;;;;;;10.89;53.00;98782.84;5091042;28;20544;-37
2022/02/07 11:38:07;;;;;;;22.20;13.63;;;;;;;10.80;52.37;98770.91;5078347;28;20055;-38
2022/02/07 11:40:35;;;;;;;24.63;13.85;;;;;;;10.63;53.13;98767.28;5091050;28;20020;-39
2022/02/07 11:43:13;;;;;;;20.33;13.90;;;;;;;10.72;53.20;98761.41;5091362;28;20036;-38
2022/02/07 11:46:03;;;;;;;20.67;13.25;;;;;;;10.83;51.92;98746.47;5090957;28;20063;-38
2022/02/07 11:48:48;;;;;;;21.63;13.65;;;;;;;10.88;52.23;98740.50;5090892;28;20028;-38
2022/02/07 11:51:13;;;;;;;23.55;13.55;;;;;;;11.16;51.83;98731.84;5095558;28;20494;-38
2022/02/07 11:53:47;;;;;;;23.23;14.82;;;;;;;11.38;51.12;98731.22;5111149;28;20043;-39
2022/02/07 11:56:17;;;;;;;26.02;14.85;;;;;;;11.30;50.44;98740.38;5111251;28;20080;-36
2022/02/07 11:58:47;;;;;;;27.42;15.93;;;;;;;11.36;51.06;98736.78;5111015;28;20150;-39
2022/02/07 12:01:13;;;;;;;24.77;14.80;;;;;;;11.37;50.24;98713.66;5110820;28;20039;-39
2022/02/07 12:03:41;;;;;;;27.13;15.52;;;;;;;11.46;50.18;98729.03;5111369;28;20023;-37
2022/02/07 12:06:09;;;;;;;27.08;15.35;;;;;;;11.20;50.87;98717.00;5111397;28;20103;-38
2022/02/07 12:08:37;;;;;;;23.65;15.07;;;;;;;11.42;50.46;98714.53;5109661;28;20066;-37
2022/02/07 12:11:02;;;;;;;24.40;14.45;;;;;;;11.23;51.02;98713.88;5093169;28;20055;-37
2022/02/07 12:13:30;;;;;;;23.77;15.13;;;;;;;11.22;50.89;98698.13;5110933;28;20514;-37
2022/02/07 12:15:57;;;;;;;27.20;16.40;;;;;;;11.29;51.14;98702.31;5110991;28;20402;-38
2022/02/07 12:18:24;;;;;;;24.10;14.80;;;;;;;11.43;50.93;98702.84;5109908;28;20028;-37
2022/02/07 12:20:52;;;;;;;25.15;15.75;;;;;;;11.51;50.79;98705.16;5111163;28;20028;-37
2022/02/07 12:23:31;;;;;;;41.13;19.80;;;;;;;11.33;50.86;98697.31;5110977;28;20027;-38
2022/02/07 12:26:07;;;;;;;40.13;20.75;;;;;;;11.39;51.24;98696.38;5110882;28;20024;-37
2022/02/07 12:28:41;;;;;;;33.67;17.55;;;;;;;11.47;50.64;98696.00;5110521;28;20117;-38
2022/02/07 12:31:20;;;;;;;27.50;16.63;;;;;;;11.47;50.71;98685.34;5110265;28;20118;-38
2022/02/07 12:34:03;;;;;;;27.88;16.52;;;;;;;11.28;50.84;98695.34;5110851;28;20106;-37
2022/02/07 12:36:30;;;;;;;32.35;18.05;;;;;;;11.40;50.66;98694.50;5111043;28;20027;-38
2022/02/07 12:38:57;;;;;;;28.98;17.52;;;;;;;11.45;51.00;98687.44;5110872;28;20035;-37
2022/02/07 12:41:26;;;;;;;28.50;16.48;;;;;;;11.49;49.97;98679.78;5110604;28;20545;-38
2022/02/07 12:43:53;;;;;;;29.45;15.88;;;;;;;11.55;50.92;98662.84;5110785;28;20385;-38
2022/02/07 12:46:20;;;;;;;35.92;16.50;;;;;;;11.60;50.32;98652.31;5110725;28;20027;-37
2022/02/07 12:48:54;;;;;;;27.33;15.40;;;;;;;11.76;49.77;98647.28;5111055;28;20031;-38
2022/02/07 12:51:20;;;;;;;29.23;15.45;;;;;;;11.57;49.64;98641.31;5111112;28;20039;-38
2022/02/07 12:53:46;;;;;;;29.15;15.80;;;;;;;11.64;49.38;98634.00;5109372;28;20027;-38
2022/02/07 12:56:12;;;;;;;29.60;15.80;;;;;;;11.74;48.89;98618.19;5110571;28;20035;-38
2022/02/07 12:58:41;;;;;;;35.55;16.25;;;;;;;11.74;49.61;98607.53;5109094;28;20070;-38
2022/02/07 13:01:17;;;;;;;30.58;16.27;;;;;;;11.77;49.00;98609.72;5111251;28;20027;-38
2022/02/07 13:04:06;;;;;;;33.00;16.17;;;;;;;11.72;49.85;98620.28;5113567;28;20046;-38
2022/02/07 13:06:46;;;;;;;24.77;15.40;;;;;;;11.39;50.15;98619.13;5114788;28;20099;-38
2022/02/07 13:09:31;;;;;;;27.08;15.27;;;;;;;11.39;50.14;98621.00;5114730;28;20035;-38
2022/02/07 13:12:03;;;;;;;28.33;15.68;;;;;;;11.38;50.19;98617.50;5114602;28;20073;-38
2022/02/07 13:14:30;;;;;;;27.77;15.38;;;;;;;11.30;51.13;98624.00;5114419;28;20068;-38
2022/02/07 13:16:56;;;;;;;25.52;15.68;;;;;;;11.37;50.82;98613.22;5112966;28;20028;-38
2022/02/07 13:19:22;;;;;;;25.35;15.40;;;;;;;11.11;51.68;98610.03;5113083;28;20554;-39
2022/02/07 13:21:54;;;;;;;24.83;15.23;;;;;;;11.08;51.31;98607.84;5114142;28;20027;-39
2022/02/07 13:24:22;;;;;;;25.95;15.55;;;;;;;11.13;51.89;98607.13;5114115;28;20062;-38
2022/02/07 13:26:49;;;;;;;33.85;17.15;;;;;;;11.02;52.29;98611.44;5113789;28;20165;-38
2022/02/07 13:29:41;;;;;;;28.15;16.48;;;;;;;10.82;53.27;98603.81;5113771;28;20594;-39
2022/02/07 13:32:06;;;;;;;27.13;16.10;;;;;;;10.92;52.29;98611.22;5114175;28;20024;-39
2022/02/07 13:34:37;;;;;;;25.65;15.23;;;;;;;11.04;52.53;98600.56;5114169;28;20034;-37
2022/02/07 13:37:09;;;;;;;23.10;14.20;;;;;;;11.33;52.20;98598.78;5114139;28;20039;-37
2022/02/07 13:39:57;;;;;;;30.83;15.00;;;;;;;11.01;52.38;98588.53;5113773;28;20038;-37
2022/02/07 13:42:31;;;;;;;25.80;14.27;;;;;;;11.14;52.38;98579.47;5113911;28;20020;-38
2022/02/07 13:45:19;;;;;;;23.15;13.88;;;;;;;11.23;52.65;98574.56;5113789;28;20020;-38
2022/02/07 13:47:50;;;;;;;23.13;13.98;;;;;;;11.00;52.52;98564.81;5114017;28;20096;-38
2022/02/07 13:50:23;;;;;;;29.58;15.32;;;;;;;11.30;52.33;98548.63;5113707;28;20119;-37
2022/02/07 13:52:55;;;;;;;26.20;15.35;;;;;;;11.49;51.27;98552.72;5113573;28;20027;-38
2022/02/07 13:55:30;;;;;;;24.40;14.70;;;;;;;11.43;51.33;98552.88;5113368;28;20020;-37
2022/02/07 13:58:13;;;;;;;24.33;14.82;;;;;;;11.64;51.29;98554.06;5111882;28;20048;-37
2022/02/07 14:00:49;;;;;;;25.55;14.27;;;;;;;11.26;51.91;98552.81;5113354;28;20513;-38
2022/02/07 14:03:16;;;;;;;25.63;15.10;;;;;;;11.05;53.40;98543.63;5113123;28;20487;-37
2022/02/07 14:05:44;;;;;;;31.58;15.43;;;;;;;11.03;53.91;98537.72;5113369;27;20024;-39
2022/02/07 14:08:10;;;;;;;25.88;16.20;;;;;;;11.09;53.39;98534.09;5113425;27;20027;-38
2022/02/07 14:10:38;;;;;;;27.25;16.17;;;;;;;11.01;53.46;98531.81;5113275;28;20107;-39
2022/02/07 14:13:13;;;;;;;29.30;16.13;;;;;;;11.35;53.02;98527.44;5113140;28;20019;-38
2022/02/07 14:15:40;;;;;;;31.73;16.20;;;;;;;10.97;53.52;98520.84;5112854;28;20038;-38
2022/02/07 14:18:09;;;;;;;34.92;17.33;;;;;;;10.89;54.49;98526.50;5112046;28;20027;-39
2022/02/07 14:20:36;;;;;;;32.60;17.42;;;;;;;10.75;54.40;98533.94;5113099;28;20027;-38
2022/02/07 14:23:05;;;;;;;29.10;16.92;;;;;;;10.84;54.06;98542.38;5113024;28;20084;-38
2022/02/07 14:25:30;;;;;;;29.05;17.58;;;;;;;10.79;54.24;98539.63;5113099;28;20030;-38